Time;durP1;ratioP1;P1;durP2;ratioP2;P2;SDS_P1;SDS_P2;PMS_P1;PMS_P2;Temp;Humidity;BMP_temperature;BMP_pressure;BME280_temperature;BME280_humidity;BME280_pressure;Samples;Min_cycle;Max_cycle;Signal;HPM_P1;HPM_P2
2022/11/17 00:01:58;;;;;;;;;2.67;2.00;;;;;13.24;78.43;98014.97;5075290;28;45660;-56
2022/11/17 00:04:25;;;;;;;;;9.00;3.00;;;;;13.20;78.49;97991.47;5069451;28;45418;-53
2022/11/17 00:06:51;;;;;;;;;5.00;3.00;;;;;13.24;78.61;97998.13;5066070;28;47187;-58
2022/11/17 00:09:16;;;;;;;;;3.33;2.00;;;;;13.25;78.06;98000.63;5073243;27;45240;-55
2022/11/17 00:14:35;;;;;;;;;9.00;3.00;;;;;13.22;77.68;97984.13;5064309;27;45427;-52
2022/11/17 00:17:11;;;;;;;;;11.67;3.33;;;;;13.23;77.61;97977.78;5058171;28;45305;-52
2022/11/17 00:22:21;;;;;;;;;8.33;5.33;;;;;13.29;76.79;98006.47;5065882;28;45292;-54
2022/11/17 00:24:47;;;;;;;;;5.67;2.67;;;;;13.31;78.53;97993.81;5075227;27;45186;-56
2022/11/17 00:27:13;;;;;;;;;6.00;2.33;;;;;13.32;77.55;97992.78;5076629;27;46717;-52
2022/11/17 00:29:39;;;;;;;;;5.67;4.33;;;;;13.33;77.66;97993.63;5055889;28;45394;-56
2022/11/17 00:34:49;;;;;;;;;7.67;4.00;;;;;13.27;78.28;97995.13;5076471;28;45241;-56
2022/11/17 00:37:15;;;;;;;;;5.33;3.00;;;;;13.26;78.32;98004.94;5074063;28;45533;-56
2022/11/17 00:39:40;;;;;;;;;3.67;2.00;;;;;13.23;77.83;97989.28;5075075;28;45322;-52
2022/11/17 00:42:06;;;;;;;;;4.33;3.33;;;;;13.24;77.31;98014.97;5077041;28;45534;-52
2022/11/17 00:44:31;;;;;;;;;5.00;4.00;;;;;13.27;77.61;98005.78;5064107;27;45554;-52
2022/11/17 00:46:57;;;;;;;;;7.00;1.00;;;;;13.25;77.27;97989.94;5063092;28;45459;-54
2022/11/17 00:49:25;;;;;;;;;5.00;4.00;;;;;13.24;76.91;97998.94;5075920;28;45684;-54
2022/11/17 00:51:54;;;;;;;;;7.33;3.00;;;;;13.22;76.76;98005.47;5073878;27;45575;-53
2022/11/17 00:54:20;;;;;;;;;7.33;2.33;;;;;13.21;76.78;98006.47;5075778;27;45582;-55
2022/11/17 00:56:46;;;;;;;;;1.33;1.33;;;;;13.18;76.14;98004.97;5054898;28;45480;-53
2022/11/17 00:59:12;;;;;;;;;3.67;1.67;;;;;13.25;76.80;97999.78;5067766;28;45418;-52
2022/11/17 01:01:38;;;;;;;;;3.00;2.33;;;;;13.25;77.21;98007.78;5087696;27;45604;-52
2022/11/17 01:04:07;;;;;;;;;7.33;3.00;;;;;13.28;76.24;98010.13;5069198;28;45625;-56
2022/11/17 01:06:35;;;;;;;;;3.33;2.00;;;;;13.30;76.88;98007.31;5072260;28;45491;-56
2022/11/17 01:09:04;;;;;;;;;8.00;2.67;;;;;13.29;75.81;98006.47;5060953;28;45272;-53
2022/11/17 01:11:30;;;;;;;;;4.00;4.00;;;;;13.29;75.29;98014.50;5068527;28;45530;-52
2022/11/17 01:13:57;;;;;;;;;4.50;2.00;;;;;13.28;75.05;98008.31;5070407;28;45629;-56
2022/11/17 01:16:24;;;;;;;;;3.00;1.00;;;;;13.31;75.09;98019.66;5064011;27;47211;-53
2022/11/17 01:18:50;;;;;;;;;3.00;0.00;;;;;13.28;73.11;98016.31;5085404;27;45264;-56
2022/11/17 01:21:19;;;;;;;;;1.00;1.00;;;;;13.25;74.80;98013.13;5057623;28;45514;-52
2022/11/17 01:23:46;;;;;;;;;4.67;1.33;;;;;13.28;74.60;98021.66;5035885;28;45575;-53
2022/11/17 01:26:14;;;;;;;;;1.00;1.00;;;;;13.30;75.11;98040.19;5057824;28;45364;-54
2022/11/17 01:28:41;;;;;;;;;2.00;2.00;;;;;13.33;74.83;98026.50;5073056;28;45555;-55
2022/11/17 01:31:12;;;;;;;;;1.33;1.33;;;;;13.35;75.63;98034.34;5076197;28;45316;-59
2022/11/17 01:33:38;;;;;;;;;3.00;1.33;;;;;13.35;74.31;98053.84;5074696;28;45682;-52
2022/11/17 01:36:11;;;;;;;;;1.00;1.00;;;;;13.30;73.90;98047.34;5073947;28;45354;-56
2022/11/17 01:38:36;;;;;;;;;3.00;0.33;;;;;13.34;73.65;98046.84;5065795;28;45437;-60
2022/11/17 01:41:04;;;;;;;;;1.33;0.00;;;;;13.34;73.12;98067.38;5057484;28;45317;-55
2022/11/17 01:43:40;;;;;;;;;1.67;1.67;;;;;13.34;73.10;98073.53;5062773;28;45446;-56
2022/11/17 01:46:12;;;;;;;;;1.67;0.00;;;;;13.35;73.09;98083.22;5074620;28;45466;-54
2022/11/17 01:48:38;;;;;;;;;1.33;0.33;;;;;13.37;72.04;98088.38;5079555;27;45511;-52
2022/11/17 01:51:04;;;;;;;;;6.00;1.00;;;;;13.29;70.97;98086.56;5075597;27;45294;-58
2022/11/17 01:53:33;;;;;;;;;0.00;0.00;;;;;13.37;73.08;98091.06;5072676;27;45312;-59
2022/11/17 01:56:04;;;;;;;;;1.00;0.00;;;;;13.38;72.64;98096.22;5060402;28;45532;-55
2022/11/17 01:58:35;;;;;;;;;3.33;0.00;;;;;13.37;73.48;98091.88;5065642;27;45485;-53
2022/11/17 02:01:01;;;;;;;;;1.00;1.00;;;;;13.35;72.84;98088.56;5074062;27;45430;-53
2022/11/17 02:03:28;;;;;;;;;2.00;0.67;;;;;13.36;74.85;98087.56;5040308;28;45568;-52
2022/11/17 02:05:59;;;;;;;;;1.00;1.00;;;;;13.36;72.28;98102.75;5070095;28;46195;-53
2022/11/17 02:08:29;;;;;;;;;1.00;1.00;;;;;13.34;72.88;98110.91;5072749;27;45514;-50
2022/11/17 02:10:55;;;;;;;;;0.00;0.00;;;;;13.27;71.54;98094.69;5075075;28;45240;-52
2022/11/17 02:13:21;;;;;;;;;0.33;0.33;;;;;13.32;70.83;98112.91;5073003;28;45426;-53
2022/11/17 02:15:47;;;;;;;;;0.00;0.00;;;;;13.33;72.64;98119.09;5075161;28;45699;-52
2022/11/17 02:18:14;;;;;;;;;1.33;0.67;;;;;13.28;71.18;98114.22;5071803;28;45491;-54
2022/11/17 02:20:52;;;;;;;;;0.33;0.00;;;;;13.35;72.30;98122.44;5038416;28;45387;-53
2022/11/17 02:23:29;;;;;;;;;0.33;0.33;;;;;13.32;71.06;98118.25;5073026;28;45881;-56
2022/11/17 02:26:40;;;;;;;;;2.33;0.00;;;;;13.30;73.03;98114.91;5074770;28;45992;-54
2022/11/17 02:29:17;;;;;;;;;1.00;0.00;;;;;13.24;72.96;98110.22;5058309;28;45517;-53
2022/11/17 02:31:52;;;;;;;;;1.67;1.00;;;;;13.24;72.18;98104.88;5059909;28;45374;-54
2022/11/17 02:34:53;;;;;;;;;1.00;1.00;;;;;13.23;73.34;98129.91;5074100;28;45714;-56
2022/11/17 02:37:34;;;;;;;;;2.33;0.00;;;;;13.23;72.31;98121.91;5056206;28;45508;-51
2022/11/17 02:40:08;;;;;;;;;0.00;0.00;;;;;13.22;72.56;98133.56;5075166;28;45739;-54
2022/11/17 02:45:49;;;;;;;;;1.00;0.33;;;;;13.21;72.78;98151.41;5073439;28;45418;-56
2022/11/17 02:48:23;;;;;;;;;0.00;0.00;;;;;13.19;71.08;98144.56;5076945;27;45494;-54
2022/11/17 02:50:50;;;;;;;;;0.00;0.00;;;;;13.19;71.63;98152.59;5076434;27;45490;-56
2022/11/17 02:53:17;;;;;;;;;0.00;0.00;;;;;13.19;71.35;98152.59;5075917;28;45507;-55
2022/11/17 02:55:48;;;;;;;;;2.00;0.33;;;;;13.19;71.68;98158.75;5060257;28;45527;-53
2022/11/17 02:58:14;;;;;;;;;1.00;1.00;;;;;13.17;69.45;98138.53;5057213;28;46140;-54
2022/11/17 03:00:49;;;;;;;;;0.00;0.00;;;;;13.17;71.60;98135.88;5075970;27;45416;-53
2022/11/17 03:03:25;;;;;;;;;0.33;0.00;;;;;13.18;71.18;98165.09;5076049;28;45557;-55
2022/11/17 03:06:10;;;;;;;;;1.00;0.00;;;;;13.17;72.11;98151.88;5068895;27;45313;-53
2022/11/17 03:08:56;;;;;;;;;1.00;0.00;;;;;13.18;71.29;98165.09;5059548;28;46207;-55
2022/11/17 03:11:31;;;;;;;;;3.00;0.00;;;;;13.19;71.20;98168.59;5078461;27;45477;-55
2022/11/17 03:14:05;;;;;;;;;1.00;0.00;;;;;13.14;72.01;98152.19;5078628;27;45166;-59
2022/11/17 03:16:48;;;;;;;;;0.33;0.00;;;;;13.08;74.84;98191.03;5074016;28;45691;-54
2022/11/17 03:19:23;;;;;;;;;0.00;0.00;;;;;12.96;73.96;98214.50;5069026;28;45660;-54
2022/11/17 03:22:19;;;;;;;;;2.00;0.00;;;;;12.86;76.46;98221.75;5087497;27;45524;-55
2022/11/17 03:24:48;;;;;;;;;1.00;0.00;;;;;12.74;78.62;98219.50;5076656;28;45500;-56
2022/11/17 03:27:43;;;;;;;;;2.00;0.00;;;;;12.57;79.38;98237.25;5077691;28;45557;-53
2022/11/17 03:30:11;;;;;;;;;0.00;0.00;;;;;12.45;80.56;98244.66;5074921;27;46420;-57
2022/11/17 03:32:39;;;;;;;;;0.00;0.00;;;;;12.34;81.82;98268.88;5076531;28;45458;-54
2022/11/17 03:35:09;;;;;;;;;3.00;0.00;;;;;12.15;82.00;98237.91;5065558;28;45491;-56
2022/11/17 03:37:40;;;;;;;;;0.00;0.00;;;;;12.13;82.44;98245.22;5063615;28;45364;-53
2022/11/17 03:40:12;;;;;;;;;1.33;0.67;;;;;12.07;82.34;98264.47;5076391;28;45511;-54
2022/11/17 03:42:42;;;;;;;;;0.00;0.00;;;;;12.00;82.47;98263.44;5058746;27;45593;-54
2022/11/17 03:45:17;;;;;;;;;0.67;0.00;;;;;11.98;82.80;98276.03;5067486;28;45476;-55
2022/11/17 03:47:44;;;;;;;;;0.00;0.00;;;;;11.96;83.36;98288.66;5071118;28;45500;-52
2022/11/17 03:50:23;;;;;;;;;0.00;0.00;;;;;11.93;85.91;98292.47;5063255;27;46314;-52
2022/11/17 03:52:49;;;;;;;;;0.00;0.00;;;;;11.85;88.61;98280.88;5060133;28;45458;-53
2022/11/17 03:55:15;;;;;;;;;0.00;0.00;;;;;11.76;88.51;98287.94;5075956;27;45435;-54
2022/11/17 03:57:49;;;;;;;;;0.00;0.00;;;;;11.77;86.07;98300.25;5073865;28;45626;-54
2022/11/17 04:00:17;;;;;;;;;3.00;0.00;;;;;11.74;86.16;98303.22;5074163;28;46065;-56
2022/11/17 04:02:44;;;;;;;;;0.00;0.00;;;;;11.74;86.02;98312.06;5048731;27;45496;-53
2022/11/17 04:05:11;;;;;;;;;0.00;0.00;;;;;11.75;85.85;98321.72;5066925;27;45488;-57
2022/11/17 04:07:40;;;;;;;;;0.00;0.00;;;;;11.74;85.50;98316.53;5075251;27;45418;-56
2022/11/17 04:10:14;;;;;;;;;0.67;0.00;;;;;11.73;84.97;98323.69;5075070;28;45458;-56
2022/11/17 04:15:58;;;;;;;;;0.00;0.00;;;;;11.69;84.24;98319.63;5077765;27;45538;-58
2022/11/17 04:18:17;;;;;;;;;0.00;0.00;;;;;11.70;84.10;98337.28;5067977;27;45611;-54
2022/11/17 04:20:42;;;;;;;;;0.00;0.00;;;;;11.68;84.24;98323.28;5074203;27;46288;-51
2022/11/17 04:23:13;;;;;;;;;2.67;1.00;;;;;11.74;83.75;98332.53;5074048;28;45304;-55
2022/11/17 04:28:35;;;;;;;;;1.00;1.00;;;;;11.78;81.97;98340.06;5071530;28;45507;-56
2022/11/17 04:31:10;;;;;;;;;0.00;0.00;;;;;11.78;81.85;98348.03;5076109;28;45394;-52
2022/11/17 04:33:38;;;;;;;;;0.00;0.00;;;;;11.78;80.82;98342.72;5069971;28;45620;-57
2022/11/17 04:36:04;;;;;;;;;0.00;0.00;;;;;11.79;81.67;98352.41;5075414;28;45344;-53
2022/11/17 04:38:30;;;;;;;;;1.00;0.00;;;;;11.80;81.39;98359.41;5078027;28;45240;-61
2022/11/17 04:43:48;;;;;;;;;0.00;0.00;;;;;11.77;80.83;98365.00;5075450;28;45304;-53
2022/11/17 04:46:15;;;;;;;;;0.33;0.00;;;;;11.79;81.55;98376.38;5075048;27;45339;-54
2022/11/17 04:48:40;;;;;;;;;0.00;0.00;;;;;11.75;81.58;98374.97;5055080;28;45566;-53
2022/11/17 04:51:05;;;;;;;;;0.00;0.00;;;;;11.78;82.11;98381.81;5076015;28;46108;-56
2022/11/17 04:53:31;;;;;;;;;0.00;0.00;;;;;11.76;82.15;98389.13;5057641;27;45533;-58
2022/11/17 04:56:01;;;;;;;;;0.00;0.00;;;;;11.71;82.67;98389.56;5079821;27;45220;-55
2022/11/17 04:58:26;;;;;;;;;0.00;0.00;;;;;11.65;82.55;98399.97;5071794;28;45569;-58
2022/11/17 05:00:52;;;;;;;;;0.00;0.00;;;;;11.65;82.67;98413.28;5054400;28;46458;-52
2022/11/17 05:03:18;;;;;;;;;0.00;0.00;;;;;11.62;82.85;98409.09;5075036;28;45276;-56
2022/11/17 05:05:44;;;;;;;;;0.00;0.00;;;;;11.61;82.49;98407.41;5075824;28;45277;-57
2022/11/17 05:08:10;;;;;;;;;0.00;0.00;;;;;11.56;82.44;98414.97;5073642;27;45455;-58
2022/11/17 05:13:24;;;;;;;;;0.00;0.00;;;;;11.63;82.78;98428.56;5075261;28;45469;-53
2022/11/17 05:18:39;;;;;;;;;1.33;0.00;;;;;11.52;81.30;98426.91;5072708;28;45533;-65
2022/11/17 05:21:05;;;;;;;;;0.00;0.00;;;;;11.50;82.48;98429.72;5067756;28;46176;-56
2022/11/17 05:26:15;;;;;;;;;0.00;0.00;;;;;11.49;80.60;98432.53;5065374;28;45632;-56
2022/11/17 05:28:41;;;;;;;;;0.33;0.00;;;;;11.48;80.76;98455.66;5075780;28;45982;-53
2022/11/17 05:31:07;;;;;;;;;1.33;0.00;;;;;11.40;80.98;98439.53;5075510;28;45326;-56
2022/11/17 05:33:32;;;;;;;;;0.67;0.00;;;;;11.42;80.91;98460.69;5057950;28;45512;-56
2022/11/17 05:35:58;;;;;;;;;0.00;0.00;;;;;11.40;80.80;98442.19;5071069;28;46204;-53
2022/11/17 05:38:23;;;;;;;;;0.00;0.00;;;;;11.36;81.51;98443.47;5066788;28;45556;-57
2022/11/17 05:40:49;;;;;;;;;0.00;0.00;;;;;11.38;81.68;98454.81;5076100;28;46245;-58
2022/11/17 05:43:14;;;;;;;;;1.00;0.00;;;;;11.37;82.00;98457.63;5067177;28;45458;-55
2022/11/17 05:45:40;;;;;;;;;0.00;0.00;;;;;11.37;81.47;98473.59;5071562;28;45518;-54
2022/11/17 05:48:05;;;;;;;;;2.33;0.00;;;;;11.33;81.50;98458.88;5071421;28;45472;-59
2022/11/17 05:50:31;;;;;;;;;0.00;0.00;;;;;11.35;80.97;98464.91;5075486;27;45336;-56
2022/11/17 05:52:56;;;;;;;;;0.00;0.00;;;;;11.34;81.06;98473.88;5075544;27;45268;-56
2022/11/17 05:55:22;;;;;;;;;0.00;0.00;;;;;11.35;81.01;98473.75;5074628;28;45474;-55
2022/11/17 05:57:49;;;;;;;;;1.00;0.00;;;;;11.36;81.02;98482.56;5075330;27;45377;-57
2022/11/17 06:00:15;;;;;;;;;1.00;1.00;;;;;11.38;81.27;98488.56;5064008;28;45370;-57
2022/11/17 06:02:48;;;;;;;;;0.00;0.00;;;;;11.36;80.71;98493.22;5062569;28;46094;-54
2022/11/17 06:05:13;;;;;;;;;0.00;0.00;;;;;11.34;81.80;98482.72;5076039;28;45482;-57
2022/11/17 06:07:39;;;;;;;;;0.00;0.00;;;;;11.38;81.28;98485.91;5076247;28;45208;-58
2022/11/17 06:10:05;;;;;;;;;0.00;0.00;;;;;11.39;80.72;98488.44;5054665;28;46059;-58
2022/11/17 06:12:31;;;;;;;;;1.00;1.00;;;;;11.43;80.66;98507.59;5082442;27;45509;-57
2022/11/17 06:14:56;;;;;;;;;1.33;0.00;;;;;11.41;80.49;98501.59;5077657;27;45681;-57
2022/11/17 06:17:27;;;;;;;;;0.00;0.00;;;;;11.41;80.10;98499.78;5057247;28;45592;-56
2022/11/17 06:20:12;;;;;;;;;0.00;0.00;;;;;11.45;78.75;98508.31;5071297;27;46192;-55
2022/11/17 06:22:38;;;;;;;;;0.00;0.00;;;;;11.40;79.54;98492.78;5096730;27;45177;-55
2022/11/17 06:25:06;;;;;;;;;0.00;0.00;;;;;11.46;78.77;98502.03;5080277;27;45272;-54
2022/11/17 06:27:32;;;;;;;;;2.67;0.00;;;;;11.52;78.71;98504.09;5077200;27;45239;-59
2022/11/17 06:30:02;;;;;;;;;1.33;0.00;;;;;11.49;78.33;98493.75;5077649;27;46424;-55
2022/11/17 06:32:27;;;;;;;;;0.00;0.00;;;;;11.55;78.31;98484.34;5076127;27;45569;-56
2022/11/17 06:34:53;;;;;;;;;2.00;0.00;;;;;11.55;77.87;98485.19;5077698;27;45491;-57
2022/11/17 06:37:19;;;;;;;;;0.00;0.00;;;;;11.57;77.21;98485.88;5075304;28;45244;-56
2022/11/17 06:39:44;;;;;;;;;0.00;0.00;;;;;11.56;76.72;98494.00;5075950;28;46560;-55
2022/11/17 06:42:10;;;;;;;;;2.00;0.00;;;;;11.57;76.59;98496.50;5074661;27;45259;-55
2022/11/17 06:44:35;;;;;;;;;0.00;0.00;;;;;11.59;75.24;98509.69;5057485;28;45771;-58
2022/11/17 06:47:01;;;;;;;;;0.00;0.00;;;;;11.58;76.10;98498.19;5076349;28;45715;-58
2022/11/17 06:49:27;;;;;;;;;1.00;1.00;;;;;11.58;75.15;98500.84;5075535;28;45846;-62
2022/11/17 06:51:52;;;;;;;;;1.00;1.00;;;;;11.55;74.43;98503.81;5076482;27;45482;-56
2022/11/17 06:54:18;;;;;;;;;1.67;0.00;;;;;11.52;75.60;98501.44;5075817;27;45367;-58
2022/11/17 06:56:44;;;;;;;;;0.00;0.00;;;;;11.55;76.53;98506.47;5076351;28;45402;-58
2022/11/17 06:59:09;;;;;;;;;0.00;0.00;;;;;11.54;75.63;98507.47;5073661;28;45383;-58
2022/11/17 07:01:36;;;;;;;;;1.00;0.00;;;;;11.50;76.12;98511.41;5075440;27;45380;-59
2022/11/17 07:04:05;;;;;;;;;4.00;0.00;;;;;11.53;76.59;98525.25;5073527;27;45469;-58
2022/11/17 07:06:31;;;;;;;;;0.00;0.00;;;;;11.50;76.55;98514.06;5083186;27;45246;-57
2022/11/17 07:08:56;;;;;;;;;0.00;0.00;;;;;11.50;76.98;98522.88;5089924;27;45342;-60
2022/11/17 07:11:22;;;;;;;;;0.00;0.00;;;;;11.56;76.97;98525.94;5074354;28;45646;-59
2022/11/17 07:13:47;;;;;;;;;0.00;0.00;;;;;11.56;76.16;98532.09;5075458;27;45222;-56
2022/11/17 07:16:15;;;;;;;;;0.00;0.00;;;;;11.55;76.73;98525.09;5076214;28;45369;-58
2022/11/17 07:18:42;;;;;;;;;1.00;0.00;;;;;11.58;76.16;98540.78;5073836;28;45483;-57
2022/11/17 07:21:10;;;;;;;;;0.67;0.00;;;;;11.60;76.84;98533.53;5075814;27;45445;-59
2022/11/17 07:23:37;;;;;;;;;2.33;1.67;;;;;11.62;77.77;98522.72;5075420;27;45402;-60
2022/11/17 07:26:04;;;;;;;;;0.00;0.00;;;;;11.59;76.97;98523.88;5057128;28;45551;-63
2022/11/17 07:28:31;;;;;;;;;0.00;0.00;;;;;11.60;75.44;98533.53;5050575;28;47391;-55
2022/11/17 07:31:01;;;;;;;;;1.00;1.00;;;;;11.67;76.52;98539.09;5076865;27;45496;-57
2022/11/17 07:33:27;;;;;;;;;6.00;1.00;;;;;11.71;77.26;98536.00;5077296;27;45455;-59
2022/11/17 07:36:00;;;;;;;;;3.00;0.33;;;;;11.71;76.27;98544.00;5072889;27;45380;-60
2022/11/17 07:38:26;;;;;;;;;0.67;0.00;;;;;11.77;74.93;98530.13;5067270;28;46276;-55
2022/11/17 07:40:51;;;;;;;;;3.00;0.33;;;;;11.86;76.22;98543.59;5077251;28;45509;-56
2022/11/17 07:43:16;;;;;;;;;2.00;0.00;;;;;11.88;75.67;98546.94;5078854;28;45244;-57
2022/11/17 07:45:42;;;;;;;;;2.00;1.00;;;;;11.94;75.45;98551.69;5079025;28;45537;-55
2022/11/17 07:48:07;;;;;;;;;1.67;1.00;;;;;11.96;75.88;98552.38;5078833;28;46553;-56
2022/11/17 07:50:34;;;;;;;;;0.00;0.00;;;;;12.01;75.25;98556.31;5078854;28;45358;-58
2022/11/17 07:52:59;;;;;;;;;2.00;1.00;;;;;12.05;75.00;98570.16;5078779;28;45402;-57
2022/11/17 07:55:25;;;;;;;;;0.00;0.00;;;;;11.99;74.32;98557.44;5079319;28;45500;-55
2022/11/17 07:57:56;;;;;;;;;1.00;1.00;;;;;12.07;74.52;98562.88;5078428;27;46928;-57
2022/11/17 08:00:21;;;;;;;;;3.00;0.00;;;;;12.13;75.40;98574.78;5078589;28;45346;-57
2022/11/17 08:02:47;;;;;;;;;0.00;0.00;;;;;12.16;74.34;98574.50;5060847;28;45197;-56
2022/11/17 08:05:16;;;;;;;;;0.67;0.00;;;;;12.18;74.20;98585.84;5078837;27;45270;-55
2022/11/17 08:07:42;;;;;;;;;2.00;0.00;;;;;12.03;74.27;98551.66;5078526;28;46439;-55
2022/11/17 08:10:08;;;;;;;;;2.33;0.67;;;;;12.10;75.07;98567.91;5060336;28;45439;-55
2022/11/17 08:12:33;;;;;;;;;1.00;0.00;;;;;12.09;76.28;98574.22;5078734;28;45300;-55
2022/11/17 08:14:58;;;;;;;;;5.33;1.00;;;;;12.10;76.38;98583.88;5079101;28;45327;-55
2022/11/17 08:17:24;;;;;;;;;1.33;0.00;;;;;12.11;76.49;98580.28;5079292;27;46222;-60
2022/11/17 08:19:50;;;;;;;;;0.00;0.00;;;;;12.13;76.54;98585.44;5079641;27;45774;-56
2022/11/17 08:22:15;;;;;;;;;0.00;0.00;;;;;12.11;75.88;98596.25;5079189;28;45681;-57
2022/11/17 08:24:40;;;;;;;;;1.00;1.00;;;;;12.13;77.77;98588.13;5061102;28;45436;-59
2022/11/17 08:27:06;;;;;;;;;0.00;0.00;;;;;12.08;79.34;98585.88;5078658;28;45591;-59
2022/11/17 08:29:31;;;;;;;;;2.00;1.00;;;;;12.01;80.08;98590.09;5078862;28;45351;-59
2022/11/17 08:31:57;;;;;;;;;0.33;0.33;;;;;11.99;79.52;98594.75;5079666;27;45440;-57
2022/11/17 08:34:22;;;;;;;;;1.00;1.00;;;;;12.02;79.52;98603.28;5060670;28;45285;-55
2022/11/17 08:36:48;;;;;;;;;1.00;1.00;;;;;12.05;79.16;98602.97;5078292;28;45248;-58
2022/11/17 08:39:14;;;;;;;;;2.33;0.00;;;;;12.12;78.84;98597.94;5077207;27;45907;-60
2022/11/17 08:41:39;;;;;;;;;1.00;0.00;;;;;12.15;78.06;98596.81;5078455;27;45382;-56
2022/11/17 08:44:05;;;;;;;;;1.67;0.00;;;;;12.16;77.85;98591.31;5078858;27;45634;-58
2022/11/17 08:46:30;;;;;;;;;1.33;0.00;;;;;12.20;77.20;98600.69;5093839;27;45428;-58
2022/11/17 08:48:56;;;;;;;;;0.00;0.00;;;;;12.23;76.24;98588.91;5078529;28;45272;-58
2022/11/17 08:51:21;;;;;;;;;2.00;1.00;;;;;12.20;76.11;98595.38;5079037;27;45714;-57
2022/11/17 08:53:47;;;;;;;;;2.00;0.33;;;;;12.26;76.28;98601.97;5078688;28;45275;-59
2022/11/17 08:56:12;;;;;;;;;0.00;0.00;;;;;12.34;75.13;98597.56;5078612;28;45413;-57
2022/11/17 08:58:42;;;;;;;;;1.00;1.00;;;;;12.43;75.30;98600.34;5078459;28;45339;-57
2022/11/17 09:01:09;;;;;;;;;1.67;0.67;;;;;12.51;76.05;98603.97;5078554;28;45544;-56
2022/11/17 09:03:40;;;;;;;;;1.67;1.00;;;;;12.57;76.63;98597.19;5059873;28;45497;-56
2022/11/17 09:06:05;;;;;;;;;0.00;0.00;;;;;12.62;75.94;98592.25;5077465;28;46394;-56
2022/11/17 09:08:31;;;;;;;;;3.00;1.00;;;;;12.61;74.70;98598.56;5077946;28;45293;-57
2022/11/17 09:10:57;;;;;;;;;2.00;1.00;;;;;12.67;74.64;98598.00;5079017;28;45167;-60
2022/11/17 09:13:23;;;;;;;;;2.33;0.67;;;;;12.72;74.93;98601.06;5078309;28;45351;-56
2022/11/17 09:15:48;;;;;;;;;1.00;1.00;;;;;12.78;74.43;98608.47;5076676;28;45367;-57
2022/11/17 09:18:14;;;;;;;;;2.00;2.00;;;;;12.86;74.99;98619.22;5076968;28;45370;-59
2022/11/17 09:20:39;;;;;;;;;0.00;0.00;;;;;12.90;74.15;98627.81;5077835;28;45635;-57
2022/11/17 09:23:05;;;;;;;;;4.67;0.67;;;;;12.87;75.37;98620.91;5077951;28;45467;-58
2022/11/17 09:25:31;;;;;;;;;4.00;1.00;;;;;12.86;74.87;98624.56;5059815;28;46832;-57
2022/11/17 09:27:57;;;;;;;;;2.33;1.00;;;;;12.87;74.22;98604.06;5078325;27;45305;-56
2022/11/17 09:30:23;;;;;;;;;2.00;1.00;;;;;12.84;74.53;98623.88;5077642;28;45355;-54
2022/11/17 09:32:49;;;;;;;;;8.33;2.00;;;;;12.82;74.40;98628.53;5078141;28;45332;-56
2022/11/17 09:35:15;;;;;;;;;2.00;2.00;;;;;12.81;75.21;98616.19;5092935;27;45208;-60
2022/11/17 09:37:40;;;;;;;;;1.67;1.00;;;;;12.85;74.61;98622.06;5078713;28;45767;-60
2022/11/17 09:40:12;;;;;;;;;4.33;1.67;;;;;12.86;74.83;98629.91;5059796;28;45817;-57
2022/11/17 09:42:39;;;;;;;;;1.00;1.00;;;;;12.82;74.81;98617.88;5078541;28;45405;-57
2022/11/17 09:45:30;;;;;;;;;0.00;0.00;;;;;12.77;75.16;98622.81;5076180;28;46567;-58
2022/11/17 09:48:15;;;;;;;;;3.33;2.33;;;;;12.75;74.58;98626.59;5060587;28;45410;-56
2022/11/17 09:50:43;;;;;;;;;4.67;1.00;;;;;12.75;74.53;98637.25;5078087;27;45445;-63
2022/11/17 09:53:33;;;;;;;;;3.00;0.00;;;;;12.84;75.08;98631.88;5076384;28;45265;-57
2022/11/17 09:56:10;;;;;;;;;0.00;0.00;;;;;12.93;74.81;98638.19;5065285;28;46110;-56
2022/11/17 09:58:45;;;;;;;;;1.00;1.00;;;;;12.97;74.71;98643.06;5079622;27;45548;-60
2022/11/17 10:01:21;;;;;;;;;4.00;2.00;;;;;13.05;74.48;98630.81;5077354;28;45367;-58
2022/11/17 10:03:49;;;;;;;;;4.00;0.33;;;;;13.14;73.98;98644.06;5072933;27;47557;-56
2022/11/17 10:06:23;;;;;;;;;7.00;1.33;;;;;13.20;74.61;98648.03;5072648;28;45538;-57
2022/11/17 10:09:03;;;;;;;;;4.67;1.00;;;;;13.30;74.12;98643.47;5069833;27;47084;-60
2022/11/17 10:11:39;;;;;;;;;3.33;2.00;;;;;13.47;73.51;98636.47;5072192;27;45561;-58
2022/11/17 10:14:10;;;;;;;;;4.00;1.00;;;;;13.64;73.26;98646.28;5072213;27;45466;-59
2022/11/17 10:16:37;;;;;;;;;11.33;8.00;;;;;13.79;72.60;98654.59;5064950;28;46199;-61
2022/11/17 10:19:21;;;;;;;;;3.00;1.00;;;;;13.87;73.73;98652.03;5070880;27;45696;-59
2022/11/17 10:21:52;;;;;;;;;1.00;1.00;;;;;13.91;72.51;98648.03;5057652;28;45300;-60
2022/11/17 10:24:46;;;;;;;;;2.00;0.67;;;;;14.00;71.69;98643.59;5072877;28;45527;-58
2022/11/17 10:27:31;;;;;;;;;4.00;1.00;;;;;14.08;71.08;98633.81;5065442;28;47153;-58
2022/11/17 10:30:18;;;;;;;;;1.33;1.00;;;;;14.14;69.60;98640.38;5060014;28;45485;-60
2022/11/17 10:32:49;;;;;;;;;2.00;2.00;;;;;14.17;71.08;98624.00;5064305;28;45708;-60
2022/11/17 10:35:19;;;;;;;;;7.00;2.00;;;;;14.35;71.13;98642.69;5061542;28;45501;-58
2022/11/17 10:38:07;;;;;;;;;1.00;1.00;;;;;14.35;70.73;98634.69;5063485;28;46530;-62
2022/11/17 10:40:38;;;;;;;;;0.00;0.00;;;;;14.42;70.52;98622.34;5059142;28;45380;-57
2022/11/17 10:43:20;;;;;;;;;3.67;1.00;;;;;14.40;70.35;98627.00;5070680;28;45650;-58
2022/11/17 10:45:48;;;;;;;;;0.67;0.33;;;;;14.41;69.37;98623.34;5074932;28;45400;-61
2022/11/17 10:48:23;;;;;;;;;2.33;1.33;;;;;14.42;70.63;98617.00;5062404;28;46012;-60
2022/11/17 10:51:13;;;;;;;;;3.00;1.00;;;;;14.38;69.99;98632.53;5067662;28;45640;-61
2022/11/17 10:53:47;;;;;;;;;2.00;0.33;;;;;14.31;68.93;98602.03;5044511;28;45506;-59
2022/11/17 10:56:18;;;;;;;;;2.00;1.00;;;;;14.41;69.38;98626.00;5081619;27;45481;-60
2022/11/17 10:58:58;;;;;;;;;0.33;0.33;;;;;14.42;67.37;98604.44;5057433;28;45358;-59
2022/11/17 11:01:38;;;;;;;;;0.00;0.00;;;;;14.40;68.49;98601.09;5076934;28;45467;-59
2022/11/17 11:04:06;;;;;;;;;2.00;0.33;;;;;14.35;66.82;98597.25;5068188;28;45340;-60
2022/11/17 11:06:33;;;;;;;;;0.33;0.33;;;;;14.49;68.31;98604.69;5044599;27;45343;-60
2022/11/17 11:09:10;;;;;;;;;0.33;0.33;;;;;14.54;66.89;98602.38;5065680;27;47814;-61
2022/11/17 11:11:46;;;;;;;;;2.00;1.00;;;;;14.64;67.35;98616.47;5066126;28;45441;-62
2022/11/17 11:14:32;;;;;;;;;3.00;1.67;;;;;14.56;67.16;98584.31;5075865;27;45543;-57
2022/11/17 11:16:58;;;;;;;;;1.00;1.00;;;;;14.63;66.96;98588.06;5064857;28;45379;-59
2022/11/17 11:19:24;;;;;;;;;1.00;0.00;;;;;14.69;66.99;98592.75;5077651;28;46063;-61
2022/11/17 11:22:01;;;;;;;;;1.00;1.00;;;;;14.79;66.05;98605.16;5079410;28;45425;-58
2022/11/17 11:24:53;;;;;;;;;1.67;1.67;;;;;14.85;66.84;98583.97;5071508;27;45427;-60
2022/11/17 11:27:34;;;;;;;;;0.00;0.00;;;;;14.87;65.65;98592.66;5098436;27;45303;-61
2022/11/17 11:30:08;;;;;;;;;2.00;1.67;;;;;14.93;65.27;98596.53;5059537;28;45403;-59
2022/11/17 11:33:11;;;;;;;;;0.00;0.00;;;;;14.96;62.23;98596.19;5076605;28;45398;-57
2022/11/17 11:36:00;;;;;;;;;4.00;1.00;;;;;14.98;64.34;98588.88;5078258;27;45316;-63
2022/11/17 11:38:43;;;;;;;;;2.00;0.67;;;;;14.95;66.24;98578.47;5067631;28;45309;-61
2022/11/17 11:41:35;;;;;;;;;3.67;1.00;;;;;14.95;64.63;98599.88;5058338;28;46201;-57
2022/11/17 11:44:19;;;;;;;;;7.67;4.00;;;;;14.97;63.87;98605.91;5067880;27;45283;-57
2022/11/17 11:46:58;;;;;;;;;1.00;1.00;;;;;14.98;63.03;98586.19;5060380;28;45422;-57
2022/11/17 11:49:54;;;;;;;;;2.00;0.00;;;;;15.07;60.93;98598.56;5079495;27;45703;-63
2022/11/17 11:52:28;;;;;;;;;0.00;0.00;;;;;14.99;60.33;98590.53;5045000;27;47158;-58
2022/11/17 11:55:06;;;;;;;;;1.33;1.00;;;;;14.98;62.22;98588.88;5076266;28;45535;-59
2022/11/17 11:57:39;;;;;;;;;2.00;1.00;;;;;15.01;61.68;98588.53;5070411;28;45450;-58
2022/11/17 12:00:13;;;;;;;;;1.67;1.67;;;;;15.24;60.04;98603.00;5061113;28;45471;-59
2022/11/17 12:03:00;;;;;;;;;1.00;1.00;;;;;15.40;62.20;98599.50;5073308;28;46176;-57
2022/11/17 12:05:53;;;;;;;;;2.00;2.00;;;;;15.40;63.32;98590.63;5062365;28;45299;-58
2022/11/17 12:08:38;;;;;;;;;3.00;0.00;;;;;15.40;60.13;98599.50;5080609;27;45275;-60
2022/11/17 12:13:58;;;;;;;;;1.00;1.00;;;;;15.30;60.36;98605.00;5064613;28;45921;-60
2022/11/17 12:16:35;;;;;;;;;3.00;1.00;;;;;15.16;61.81;98589.56;5078729;27;45473;-61
2022/11/17 12:19:01;;;;;;;;;0.00;0.00;;;;;15.17;61.73;98609.16;5058955;28;45456;-58
2022/11/17 12:21:28;;;;;;;;;0.00;0.00;;;;;15.14;61.77;98612.16;5078269;28;45542;-61